createdAt,value
2023-02-18T00:01:18.190Z,7.68
2023-02-18T00:03:46.440Z,7.68
2023-02-18T00:06:15.413Z,7.68
2023-02-18T00:08:44.160Z,7.68
2023-02-18T00:11:12.237Z,7.69
2023-02-18T00:13:41.711Z,7.71
2023-02-18T00:16:12.051Z,7.73
2023-02-18T00:18:40.313Z,7.72
2023-02-18T00:21:09.087Z,7.75
2023-02-18T00:23:37.232Z,7.76
2023-02-18T00:26:11.727Z,7.73
2023-02-18T00:28:42.306Z,7.72
2023-02-18T00:31:11.264Z,7.71
2023-02-18T00:33:39.410Z,7.74
2023-02-18T00:36:09.540Z,7.72
2023-02-18T00:38:37.844Z,7.74
2023-02-18T00:41:06.779Z,7.73
2023-02-18T00:43:35.320Z,7.72
2023-02-18T00:46:05.545Z,7.72
2023-02-18T00:48:34.064Z,7.71
2023-02-18T00:51:02.346Z,7.69
2023-02-18T00:53:30.615Z,7.71
2023-02-18T00:55:58.809Z,7.71
2023-02-18T00:58:26.980Z,7.72
2023-02-18T01:00:55.524Z,7.76
2023-02-18T01:03:25.325Z,7.77
2023-02-18T01:05:53.731Z,7.74
2023-02-18T01:08:22.181Z,7.73
2023-02-18T01:10:53.652Z,7.76
2023-02-18T01:13:21.790Z,7.75
2023-02-18T01:15:49.870Z,7.74
2023-02-18T01:18:18.013Z,7.70
2023-02-18T01:20:47.506Z,7.69
2023-02-18T01:23:16.727Z,7.68
2023-02-18T01:25:44.857Z,7.68
2023-02-18T01:28:13.588Z,7.73
2023-02-18T01:30:42.286Z,7.72
2023-02-18T01:33:10.454Z,7.70
2023-02-18T01:35:40.092Z,7.73
2023-02-18T01:38:09.564Z,7.77
2023-02-18T01:40:37.886Z,7.77
2023-02-18T01:43:06.032Z,7.75
2023-02-18T01:46:00.019Z,7.75
2023-02-18T01:48:31.049Z,7.84
2023-02-18T01:51:01.654Z,7.86
2023-02-18T01:53:32.868Z,7.86
2023-02-18T01:56:01.650Z,7.91
2023-02-18T01:58:30.047Z,7.89
2023-02-18T02:00:58.266Z,7.89
2023-02-18T02:03:26.357Z,7.83
2023-02-18T02:05:54.460Z,7.82
2023-02-18T02:08:22.502Z,7.80
2023-02-18T02:11:03.522Z,7.83
2023-02-18T02:13:38.850Z,7.85
2023-02-18T02:16:09.656Z,7.89
2023-02-18T02:18:45.399Z,7.89
2023-02-18T02:21:59.171Z,7.89
2023-02-18T02:24:55.258Z,7.89
2023-02-18T02:27:26.580Z,7.92
2023-02-18T02:30:30.943Z,7.92
2023-02-18T02:33:33.896Z,7.96
2023-02-18T02:36:05.034Z,7.97
2023-02-18T02:38:35.925Z,7.97
2023-02-18T02:41:11.865Z,7.96
2023-02-18T02:43:44.982Z,7.94
2023-02-18T02:46:19.114Z,7.93
2023-02-18T02:48:49.549Z,7.89
2023-02-18T02:51:23.061Z,7.87
2023-02-18T02:53:51.121Z,7.87
2023-02-18T02:56:20.772Z,7.87
2023-02-18T02:58:50.248Z,7.90
2023-02-18T03:01:24.395Z,7.94
2023-02-18T03:04:27.966Z,7.93
2023-02-18T03:07:16.353Z,7.93
2023-02-18T03:09:53.024Z,7.92
2023-02-18T03:12:25.880Z,7.90
2023-02-18T03:15:00.851Z,7.89
2023-02-18T03:17:30.707Z,7.89
2023-02-18T03:20:01.520Z,7.87
2023-02-18T03:22:32.532Z,7.85
2023-02-18T03:25:02.573Z,7.83
2023-02-18T03:27:32.103Z,7.82
2023-02-18T03:30:01.881Z,7.81
2023-02-18T03:32:30.218Z,7.80
2023-02-18T03:35:01.274Z,7.82
2023-02-18T03:37:31.236Z,7.86
2023-02-18T03:39:59.945Z,7.83
2023-02-18T03:42:28.784Z,7.84
2023-02-18T03:44:56.924Z,7.84
2023-02-18T03:47:25.442Z,7.84
2023-02-18T03:49:53.529Z,7.86
2023-02-18T03:52:21.684Z,7.86
2023-02-18T03:54:52.646Z,7.84
2023-02-18T03:57:20.753Z,7.81
2023-02-18T03:59:48.954Z,7.81
2023-02-18T04:02:17.328Z,7.83
2023-02-18T04:04:45.480Z,7.80
2023-02-18T04:07:13.556Z,7.79
2023-02-18T04:09:41.701Z,7.81
2023-02-18T04:12:11.166Z,7.80
2023-02-18T04:14:39.521Z,7.79
2023-02-18T04:17:07.628Z,7.77
2023-02-18T04:19:35.806Z,7.83
2023-02-18T04:22:04.037Z,7.86
2023-02-18T04:24:32.105Z,7.86
2023-02-18T04:27:00.206Z,7.87
2023-02-18T04:29:30.008Z,7.86
2023-02-18T04:31:58.115Z,7.83
2023-02-18T04:34:26.190Z,7.83
2023-02-18T04:36:54.359Z,7.83
2023-02-18T04:39:22.368Z,7.88
2023-02-18T04:41:50.792Z,7.87
2023-02-18T04:44:18.852Z,7.89
2023-02-18T04:46:48.326Z,7.90
2023-02-18T04:49:16.441Z,7.93
2023-02-18T04:51:44.507Z,7.88
2023-02-18T04:54:12.534Z,7.87
2023-02-18T04:56:41.018Z,7.84
2023-02-18T04:59:09.730Z,7.82
2023-02-18T05:01:37.781Z,7.80
2023-02-18T05:04:07.360Z,7.79
2023-02-18T05:06:35.470Z,7.81
2023-02-18T05:09:03.809Z,7.82
2023-02-18T05:11:31.886Z,7.83
2023-02-18T05:13:59.898Z,7.89
2023-02-18T05:16:28.058Z,7.90
2023-02-18T05:18:56.120Z,7.86
2023-02-18T05:21:25.598Z,7.87
2023-02-18T05:23:53.935Z,7.90
2023-02-18T05:26:21.964Z,7.89
2023-02-18T05:28:50.006Z,7.87
2023-02-18T05:31:18.211Z,7.87
2023-02-18T05:33:46.412Z,7.88
2023-02-18T05:36:14.832Z,7.88
2023-02-18T05:38:44.292Z,7.90
2023-02-18T05:41:12.375Z,7.92
2023-02-18T05:43:54.301Z,7.91
2023-02-18T05:46:22.514Z,7.90
2023-02-18T05:48:50.611Z,7.90
2023-02-18T05:51:19.103Z,7.89
2023-02-18T05:53:48.576Z,7.84
2023-02-18T05:56:16.681Z,7.79
2023-02-18T05:58:44.720Z,7.74
2023-02-18T06:01:12.832Z,7.74
2023-02-18T06:03:41.084Z,7.74
2023-02-18T06:06:09.768Z,7.76
2023-02-18T06:08:38.132Z,7.77
2023-02-18T06:11:07.742Z,7.75
2023-02-18T06:13:35.822Z,7.79
2023-02-18T06:16:03.874Z,7.86
2023-02-18T06:18:31.988Z,7.86
2023-02-18T06:21:00.090Z,7.86
2023-02-18T06:23:28.203Z,7.87
2023-02-18T06:25:56.290Z,7.88
2023-02-18T06:28:25.852Z,7.87
2023-02-18T06:30:54.348Z,7.88
2023-02-18T06:33:22.815Z,7.90
2023-02-18T06:35:55.450Z,7.88
2023-02-18T06:38:23.527Z,7.88
2023-02-18T06:40:51.672Z,7.89
2023-02-18T06:43:19.856Z,7.95
2023-02-18T06:45:49.301Z,7.98
2023-02-18T06:48:17.996Z,8.03
2023-02-18T06:50:46.096Z,8.06
2023-02-18T06:53:14.200Z,8.08
2023-02-18T06:55:42.690Z,8.10
2023-02-18T06:58:10.866Z,8.11
2023-02-18T07:00:39.283Z,8.13
2023-02-18T07:03:08.927Z,8.12
2023-02-18T07:05:37.077Z,8.15
2023-02-18T07:08:05.371Z,8.20
2023-02-18T07:10:33.416Z,8.27
2023-02-18T07:13:01.512Z,8.31
2023-02-18T07:15:29.914Z,8.32
2023-02-18T07:17:58.009Z,8.37
2023-02-18T07:20:27.541Z,8.39
2023-02-18T07:22:55.681Z,8.41
2023-02-18T07:25:23.791Z,8.44
2023-02-18T07:27:52.211Z,8.47
2023-02-18T07:30:21.041Z,8.47
2023-02-18T07:32:49.275Z,8.52
2023-02-18T07:35:23.570Z,8.51
2023-02-18T07:37:53.325Z,8.52
2023-02-18T07:40:22.390Z,8.56
2023-02-18T07:42:50.792Z,8.59
2023-02-18T07:45:20.552Z,8.62
2023-02-18T07:47:48.600Z,8.64
2023-02-18T07:50:16.673Z,8.67
2023-02-18T07:52:44.733Z,8.68
2023-02-18T07:55:14.459Z,8.70
2023-02-18T07:57:56.354Z,8.73
2023-02-18T08:00:24.896Z,8.74
2023-02-18T08:02:52.991Z,8.77
2023-02-18T08:05:21.219Z,8.80
2023-02-18T08:07:49.408Z,8.85
2023-02-18T08:10:19.160Z,8.92
2023-02-18T08:12:47.212Z,8.98
2023-02-18T08:15:16.564Z,8.98
2023-02-18T08:17:44.624Z,9.02
2023-02-18T08:20:13.349Z,9.05
2023-02-18T08:22:41.732Z,9.07
2023-02-18T08:25:15.745Z,9.10
2023-02-18T08:27:57.506Z,9.10
2023-02-18T08:30:25.678Z,9.07
2023-02-18T08:32:53.858Z,9.07
2023-02-18T08:35:22.298Z,9.05
2023-02-18T08:37:52.396Z,9.06
2023-02-18T08:40:22.367Z,9.06
2023-02-18T08:42:50.434Z,9.06
2023-02-18T08:45:20.073Z,9.05
2023-02-18T08:48:18.158Z,9.07
2023-02-18T08:50:36.540Z,9.09
2023-02-18T08:53:04.621Z,9.10
2023-02-18T08:55:32.758Z,9.14
2023-02-18T08:58:00.848Z,9.20
2023-02-18T09:00:30.321Z,9.23
2023-02-18T09:02:58.704Z,9.27
2023-02-18T09:05:26.970Z,9.32
2023-02-18T09:07:55.003Z,9.38
2023-02-18T09:10:23.251Z,9.41
2023-02-18T09:12:51.307Z,9.48
2023-02-18T09:15:19.898Z,9.56
2023-02-18T09:17:49.486Z,9.62
2023-02-18T09:20:17.599Z,9.69
2023-02-18T09:22:45.637Z,9.72
2023-02-18T09:25:13.906Z,9.74
2023-02-18T09:27:42.054Z,9.83
2023-02-18T09:30:11.725Z,9.85
2023-02-18T09:32:39.831Z,9.85
2023-02-18T09:35:09.949Z,9.81
2023-02-18T09:37:39.908Z,9.81
2023-02-18T09:40:09.286Z,9.79
2023-02-18T09:42:37.364Z,9.79
2023-02-18T09:45:06.733Z,9.75
2023-02-18T09:47:36.485Z,9.70
2023-02-18T09:50:07.152Z,9.63
2023-02-18T09:52:38.365Z,9.57
2023-02-18T09:55:20.920Z,9.52
2023-02-18T09:57:50.558Z,9.48
2023-02-18T10:00:21.177Z,9.47
2023-02-18T10:02:55.326Z,9.46
2023-02-18T10:05:23.633Z,9.39
2023-02-18T10:07:54.777Z,9.37
2023-02-18T10:10:26.352Z,9.29
2023-02-18T10:12:54.858Z,9.25
2023-02-18T10:15:25.211Z,9.22
2023-02-18T10:17:53.356Z,9.21
2023-02-18T10:20:23.680Z,9.21
2023-02-18T10:22:53.251Z,9.18
2023-02-18T10:25:22.516Z,9.21
2023-02-18T10:27:50.810Z,9.25
2023-02-18T10:30:24.493Z,9.25
2023-02-18T10:32:54.588Z,9.27
2023-02-18T10:35:24.853Z,9.29
2023-02-18T10:38:01.425Z,9.32
2023-02-18T10:40:32.314Z,9.32
2023-02-18T10:43:05.196Z,9.32
2023-02-18T10:45:38.483Z,9.34
2023-02-18T10:48:14.697Z,9.36
2023-02-18T10:50:43.574Z,9.39
2023-02-18T10:53:14.201Z,9.37
2023-02-18T10:55:43.387Z,9.31
2023-02-18T10:58:30.044Z,9.24
2023-02-18T11:00:58.169Z,9.17
2023-02-18T11:03:27.651Z,9.15
2023-02-18T11:05:56.769Z,9.12
2023-02-18T11:08:27.984Z,9.16
2023-02-18T11:10:56.125Z,9.18
2023-02-18T11:13:28.292Z,9.14
2023-02-18T11:15:59.032Z,9.11
2023-02-18T11:18:34.041Z,9.09
2023-02-18T11:21:02.919Z,9.07
2023-02-18T11:23:32.463Z,9.05
2023-02-18T11:26:02.174Z,9.01
2023-02-18T11:28:41.534Z,9.00
2023-02-18T11:31:10.066Z,8.97
2023-02-18T11:33:40.392Z,8.97
2023-02-18T11:36:17.781Z,8.96
2023-02-18T11:38:48.933Z,8.92
2023-02-18T11:41:18.445Z,8.88
2023-02-18T11:43:48.025Z,8.87
2023-02-18T11:46:17.251Z,8.86
2023-02-18T11:48:45.759Z,8.84
2023-02-18T11:51:18.315Z,8.76
2023-02-18T11:53:59.883Z,8.73
2023-02-18T11:56:29.131Z,8.69
2023-02-18T11:58:57.821Z,8.67
2023-02-18T12:01:37.609Z,8.64
2023-02-18T12:04:09.480Z,8.62
2023-02-18T12:06:40.002Z,8.60
2023-02-18T12:09:13.840Z,8.60
2023-02-18T12:11:42.883Z,8.57
2023-02-18T12:14:13.303Z,8.55
2023-02-18T12:16:47.111Z,8.55
2023-02-18T12:19:24.844Z,8.53
2023-02-18T12:21:57.317Z,8.52
2023-02-18T12:24:37.699Z,8.53
2023-02-18T12:27:11.585Z,8.56
2023-02-18T12:29:46.702Z,8.58
2023-02-18T12:32:20.759Z,8.64
2023-02-18T12:34:58.693Z,8.72
2023-02-18T12:37:51.716Z,8.75
2023-02-18T12:40:39.528Z,8.78
2023-02-18T12:43:10.509Z,8.85
2023-02-18T12:45:47.174Z,8.84
2023-02-18T12:48:26.805Z,8.87
2023-02-18T12:51:05.295Z,8.86
2023-02-18T12:53:55.693Z,8.86
2023-02-18T12:56:49.040Z,8.85
2023-02-18T12:59:23.998Z,8.84
2023-02-18T13:01:56.309Z,8.80
2023-02-18T13:04:32.099Z,8.81
2023-02-18T13:07:11.736Z,8.81
2023-02-18T13:09:46.843Z,8.80
2023-02-18T13:12:17.378Z,8.80
2023-02-18T13:14:49.951Z,8.78
2023-02-18T13:17:18.408Z,8.78
2023-02-18T13:19:49.037Z,8.77
2023-02-18T13:22:17.841Z,8.74
2023-02-18T13:24:47.237Z,8.72
2023-02-18T13:27:19.651Z,8.73
2023-02-18T13:29:49.975Z,8.73
2023-02-18T13:32:21.550Z,8.70
2023-02-18T13:34:51.961Z,8.70
2023-02-18T13:37:24.019Z,8.66
2023-02-18T13:39:53.495Z,8.66
2023-02-18T13:42:38.633Z,8.64
2023-02-18T13:45:29.832Z,8.65
2023-02-18T13:47:58.260Z,8.67
2023-02-18T13:50:34.588Z,8.66
2023-02-18T13:53:23.840Z,8.66
2023-02-18T13:55:56.917Z,8.64
2023-02-18T13:58:28.416Z,8.63
2023-02-18T14:00:58.371Z,8.61
2023-02-18T14:03:38.532Z,8.62
2023-02-18T14:06:16.324Z,8.60
2023-02-18T14:08:44.502Z,8.59
2023-02-18T14:11:27.300Z,8.59
2023-02-18T14:13:57.221Z,8.56
2023-02-18T14:16:25.709Z,8.54
2023-02-18T14:19:01.322Z,8.55
2023-02-18T14:21:40.734Z,8.63
2023-02-18T14:24:18.648Z,8.61
2023-02-18T14:26:48.199Z,8.57
2023-02-18T14:29:22.074Z,8.55
2023-02-18T14:31:53.757Z,8.53
2023-02-18T14:34:55.366Z,8.53
2023-02-18T14:37:45.365Z,8.54
2023-02-18T14:40:40.509Z,8.54
2023-02-18T14:43:11.756Z,8.54
2023-02-18T14:45:55.366Z,8.52
2023-02-18T14:48:40.050Z,8.52
2023-02-18T14:51:08.358Z,8.51
2023-02-18T14:53:37.246Z,8.49
2023-02-18T14:56:06.272Z,8.47
2023-02-18T14:58:36.482Z,8.44
2023-02-18T15:01:09.303Z,8.39
2023-02-18T15:03:37.420Z,8.38
2023-02-18T15:06:07.512Z,8.39
2023-02-18T15:08:38.627Z,8.39
2023-02-18T15:11:07.249Z,8.38
2023-02-18T15:13:36.894Z,8.35
2023-02-18T15:16:06.280Z,8.36
2023-02-18T15:18:38.758Z,8.34
2023-02-18T15:21:07.989Z,8.31
2023-02-18T15:23:36.584Z,8.30
2023-02-18T15:26:05.205Z,8.28
2023-02-18T15:28:36.590Z,8.25
2023-02-18T15:31:04.961Z,8.24
2023-02-18T15:33:33.061Z,8.22
2023-02-18T15:36:07.079Z,8.21
2023-02-18T15:38:35.245Z,8.21
2023-02-18T15:41:04.083Z,8.21
2023-02-18T15:43:32.290Z,8.19
2023-02-18T15:46:00.359Z,8.17
2023-02-18T15:48:33.664Z,8.16
2023-02-18T15:51:16.379Z,8.15
2023-02-18T15:53:46.826Z,8.15
2023-02-18T15:56:18.184Z,8.15
2023-02-18T15:58:46.350Z,8.16
2023-02-18T16:01:27.061Z,8.12
2023-02-18T16:03:55.525Z,8.10
2023-02-18T16:06:26.121Z,8.12
2023-02-18T16:08:57.716Z,8.14
2023-02-18T16:11:25.876Z,8.13
2023-02-18T16:13:53.993Z,8.12
2023-02-18T16:16:25.002Z,8.14
2023-02-18T16:18:53.161Z,8.15
2023-02-18T16:21:27.811Z,8.16
2023-02-18T16:23:58.228Z,8.19
2023-02-18T16:26:29.840Z,8.22
2023-02-18T16:29:03.579Z,8.18
2023-02-18T16:31:32.017Z,8.16
2023-02-18T16:34:00.209Z,8.12
2023-02-18T16:36:30.013Z,8.10
2023-02-18T16:38:58.784Z,8.11
2023-02-18T16:41:26.979Z,8.13
2023-02-18T16:43:55.164Z,8.15
2023-02-18T16:46:23.842Z,8.16
2023-02-18T16:48:54.983Z,8.13
2023-02-18T16:51:24.348Z,8.13
2023-02-18T16:53:53.917Z,8.11
2023-02-18T16:56:23.939Z,8.12
2023-02-18T16:58:52.221Z,8.14
2023-02-18T17:01:24.116Z,8.13
2023-02-18T17:03:52.774Z,8.13
2023-02-18T17:06:21.226Z,8.13
2023-02-18T17:08:49.597Z,8.10
2023-02-18T17:11:25.782Z,8.05
2023-02-18T17:13:54.711Z,7.99
2023-02-18T17:16:23.807Z,7.97
2023-02-18T17:18:51.906Z,7.97
2023-02-18T17:21:20.969Z,7.92
2023-02-18T17:23:49.184Z,7.92
2023-02-18T17:26:18.890Z,7.89
2023-02-18T17:28:48.409Z,7.91
2023-02-18T17:31:18.611Z,7.91
2023-02-18T17:33:46.746Z,7.91
2023-02-18T17:36:14.816Z,7.92
2023-02-18T17:38:42.928Z,7.90
2023-02-18T17:41:11.377Z,7.89
2023-02-18T17:43:39.479Z,7.87
2023-02-18T17:46:11.808Z,7.84
2023-02-18T17:48:40.228Z,7.81
2023-02-18T17:51:08.599Z,7.79
2023-02-18T17:53:46.156Z,7.78
2023-02-18T17:56:14.245Z,7.77
2023-02-18T17:58:42.635Z,7.74
2023-02-18T18:01:12.200Z,7.75
2023-02-18T18:03:40.326Z,7.73
2023-02-18T18:06:15.530Z,7.69
2023-02-18T18:08:43.624Z,7.67
2023-02-18T18:11:12.397Z,7.63
2023-02-18T18:13:40.760Z,7.60
2023-02-18T18:16:11.922Z,7.60
2023-02-18T18:18:40.154Z,7.59
2023-02-18T18:21:10.547Z,7.59
2023-02-18T18:23:39.098Z,7.58
2023-02-18T18:26:07.230Z,7.53
2023-02-18T18:28:37.553Z,7.50
2023-02-18T18:31:06.403Z,7.50
2023-02-18T18:33:35.885Z,7.47
2023-02-18T18:36:04.097Z,7.45
2023-02-18T18:38:32.196Z,7.45
2023-02-18T18:41:00.276Z,7.43
2023-02-18T18:43:32.597Z,7.42
2023-02-18T18:46:01.144Z,7.40
2023-02-18T18:48:29.303Z,7.40
2023-02-18T18:50:58.850Z,7.41
2023-02-18T18:53:28.238Z,7.39
2023-02-18T18:55:57.110Z,7.39
2023-02-18T18:58:25.378Z,7.38
2023-02-18T19:00:54.698Z,7.36
2023-02-18T19:03:23.152Z,7.35
2023-02-18T19:05:51.731Z,7.34
2023-02-18T19:08:21.296Z,7.32
2023-02-18T19:10:50.732Z,7.32
2023-02-18T19:13:19.964Z,7.31
2023-02-18T19:15:48.143Z,7.31
2023-02-18T19:18:17.251Z,7.28
2023-02-18T19:20:45.705Z,7.29
2023-02-18T19:23:13.824Z,7.29
2023-02-18T19:25:43.324Z,7.29
2023-02-18T19:28:13.801Z,7.27
2023-02-18T19:30:42.400Z,7.25
2023-02-18T19:33:12.290Z,7.23
2023-02-18T19:35:40.617Z,7.22
2023-02-18T19:38:08.983Z,7.24
2023-02-18T19:40:37.209Z,7.23
2023-02-18T19:43:06.728Z,7.21
2023-02-18T19:45:35.332Z,7.18
2023-02-18T19:48:03.473Z,7.16
2023-02-18T19:50:31.767Z,7.15
2023-02-18T19:53:00.599Z,7.14
2023-02-18T19:55:28.705Z,7.14
2023-02-18T19:57:56.729Z,7.11
2023-02-18T20:00:26.581Z,7.08
2023-02-18T20:02:54.724Z,7.08
2023-02-18T20:05:23.115Z,7.05
2023-02-18T20:07:51.473Z,7.06
2023-02-18T20:10:20.773Z,7.03
2023-02-18T20:12:52.989Z,7.05
2023-02-18T20:15:21.406Z,7.08
2023-02-18T20:17:50.995Z,7.07
2023-02-18T20:20:19.440Z,7.06
2023-02-18T20:22:47.617Z,7.07
2023-02-18T20:25:15.726Z,7.06
2023-02-18T20:27:59.533Z,7.08
2023-02-18T20:30:29.002Z,7.06
2023-02-18T20:32:58.625Z,7.05
2023-02-18T20:35:26.999Z,7.03
2023-02-18T20:37:55.201Z,7.06
2023-02-18T20:40:23.654Z,7.07
2023-02-18T20:42:51.879Z,7.06
2023-02-18T20:45:20.285Z,7.05
2023-02-18T20:47:48.454Z,7.06
2023-02-18T20:50:18.060Z,7.05
2023-02-18T20:52:46.595Z,7.07
2023-02-18T20:55:14.865Z,7.06
2023-02-18T20:57:42.991Z,7.05
2023-02-18T21:00:13.178Z,7.03
2023-02-18T21:02:41.274Z,7.04
2023-02-18T21:05:09.445Z,7.01
2023-02-18T21:07:39.393Z,7.04
2023-02-18T21:10:08.084Z,7.04
2023-02-18T21:12:36.165Z,7.03
2023-02-18T21:15:04.354Z,7.04
2023-02-18T21:17:32.443Z,7.04
2023-02-18T21:20:01.402Z,7.02
2023-02-18T21:22:29.513Z,7.03
2023-02-18T21:25:00.472Z,7.00
2023-02-18T21:27:28.829Z,7.00
2023-02-18T21:29:59.837Z,7.01
2023-02-18T21:32:28.072Z,7.00
2023-02-18T21:34:56.525Z,7.00
2023-02-18T21:37:24.687Z,6.98
2023-02-18T21:39:52.920Z,6.99
2023-02-18T21:42:22.448Z,7.00
2023-02-18T21:44:50.581Z,7.02
2023-02-18T21:47:18.999Z,7.02
2023-02-18T21:49:47.085Z,7.02
2023-02-18T21:52:15.193Z,7.00
2023-02-18T21:54:44.591Z,6.98
2023-02-18T21:57:13.654Z,6.96
2023-02-18T21:59:43.284Z,6.95
2023-02-18T22:02:15.728Z,6.91
2023-02-18T22:04:43.828Z,6.90
2023-02-18T22:07:11.989Z,6.89
2023-02-18T22:09:40.341Z,6.86
2023-02-18T22:12:08.771Z,6.90
2023-02-18T22:14:37.208Z,6.87
2023-02-18T22:17:06.752Z,6.89
2023-02-18T22:19:34.856Z,6.85
2023-02-18T22:22:03.435Z,6.83
2023-02-18T22:24:31.604Z,6.82
2023-02-18T22:27:01.080Z,6.80
2023-02-18T22:29:29.925Z,6.80
2023-02-18T22:31:58.105Z,6.78
2023-02-18T22:34:27.760Z,6.72
2023-02-18T22:36:55.855Z,6.74
2023-02-18T22:39:24.414Z,6.72
2023-02-18T22:41:52.869Z,6.70
2023-02-18T22:44:21.061Z,6.70
2023-02-18T22:46:49.196Z,6.69
2023-02-18T22:49:17.408Z,6.67
2023-02-18T22:51:47.011Z,6.67
2023-02-18T22:54:16.522Z,6.68
2023-02-18T22:56:44.723Z,6.65
2023-02-18T22:59:12.913Z,6.66
2023-02-18T23:01:41.721Z,6.69
2023-02-18T23:04:11.214Z,6.71
2023-02-18T23:06:39.944Z,6.71
2023-02-18T23:09:10.405Z,6.72
2023-02-18T23:11:38.570Z,6.70
2023-02-18T23:14:22.464Z,6.69
2023-02-18T23:17:09.081Z,6.68
2023-02-18T23:19:37.480Z,6.69
2023-02-18T23:22:05.882Z,6.69
2023-02-18T23:24:35.891Z,6.67
2023-02-18T23:27:04.116Z,6.63
2023-02-18T23:29:32.232Z,6.62
2023-02-18T23:32:00.306Z,6.57
2023-02-18T23:34:28.639Z,6.53
2023-02-18T23:36:57.114Z,6.54
2023-02-18T23:39:25.475Z,6.55
2023-02-18T23:41:54.944Z,6.55
2023-02-18T23:44:24.004Z,6.58
2023-02-18T23:46:52.126Z,6.58
2023-02-18T23:49:22.143Z,6.59
2023-02-18T23:51:50.317Z,6.58
2023-02-18T23:54:18.495Z,6.63
2023-02-18T23:56:46.566Z,6.64
2023-02-18T23:59:16.039Z,6.64
